Time;durP1;ratioP1;P1;durP2;ratioP2;P2;SDS_P1;SDS_P2;PMS_P1;PMS_P2;Temp;Humidity;BMP_temperature;BMP_pressure;BME280_temperature;BME280_humidity;BME280_pressure;Samples;Min_cycle;Max_cycle;Signal;HPM_P1;HPM_P2
2022/05/12 00:01:26;;;;;;;11.10;3.60;;;;;12.00;97787.60;;;;110903;1250;41249;-70
2022/05/12 00:03:59;;;;;;;7.80;3.70;;;;;12.00;97787.80;;;;111017;1250;41265;-70
2022/05/12 00:06:29;;;;;;;9.30;4.00;;;;;12.00;97783.80;;;;110698;1253;41149;-72
2022/05/12 00:08:59;;;;;;;9.70;4.30;;;;;12.00;97785.00;;;;110872;1252;41596;-70
2022/05/12 00:11:30;;;;;;;11.40;4.30;;;;;12.00;97787.20;;;;110679;1252;41918;-71
2022/05/12 00:13:59;;;;;;;8.90;4.10;;;;;12.00;97785.20;;;;110768;1253;41146;-72
2022/05/12 00:16:31;;;;;;;11.60;5.20;;;;;11.98;97789.20;;;;111041;1250;41159;-72
2022/05/12 00:19:01;;;;;;;11.70;5.20;;;;;11.96;97787.60;;;;110938;1250;41654;-71
2022/05/12 00:21:33;;;;;;;9.50;4.40;;;;;11.90;97788.60;;;;111154;1250;41309;-71
2022/05/12 00:24:05;;;;;;;14.70;4.70;;;;;11.90;97789.80;;;;110873;1250;41329;-70
2022/05/12 00:26:37;;;;;;;11.00;4.60;;;;;11.90;97792.80;;;;110899;1250;42974;-70
2022/05/12 00:29:11;;;;;;;11.10;4.70;;;;;11.90;97793.60;;;;110730;1254;41273;-70
2022/05/12 00:31:49;;;;;;;9.80;4.90;;;;;11.88;97799.40;;;;110967;1250;41153;-70
2022/05/12 00:34:20;;;;;;;11.90;5.20;;;;;11.80;97805.00;;;;110969;1250;41265;-70
2022/05/12 00:36:52;;;;;;;12.40;5.80;;;;;11.80;97807.00;;;;110675;1253;41155;-70
2022/05/12 00:39:22;;;;;;;;;;;;;11.70;97807.20;;;;110708;1253;42157;-68
2022/05/12 00:41:53;;;;;;;11.50;4.80;;;;;11.50;97811.80;;;;111137;1250;41600;-69
2022/05/12 00:44:24;;;;;;;9.30;4.80;;;;;11.50;97809.80;;;;111031;1250;42656;-70
2022/05/12 00:46:57;;;;;;;11.40;5.40;;;;;11.40;97806.00;;;;110955;1251;41566;-70
2022/05/12 00:49:31;;;;;;;13.00;5.60;;;;;11.36;97807.80;;;;110892;1250;41131;-71
2022/05/12 00:52:09;;;;;;;11.70;5.30;;;;;11.36;97808.00;;;;110798;1253;41196;-71
2022/05/12 00:54:49;;;;;;;12.60;5.10;;;;;11.36;97807.40;;;;110830;1252;41829;-70
2022/05/12 00:57:29;;;;;;;9.80;4.30;;;;;11.30;97808.20;;;;110924;1251;42381;-70
2022/05/12 00:59:59;;;;;;;9.50;4.20;;;;;11.30;97806.60;;;;110819;1252;41622;-70
2022/05/12 01:02:38;;;;;;;12.00;5.60;;;;;11.20;97804.40;;;;110829;1253;41151;-70
2022/05/12 01:05:09;;;;;;;12.60;5.00;;;;;11.20;97809.40;;;;110735;1253;41145;-71
2022/05/12 01:07:40;;;;;;;10.50;5.20;;;;;11.20;97808.60;;;;110692;1253;41178;-70
2022/05/12 01:10:11;;;;;;;11.80;4.70;;;;;11.20;97805.40;;;;111042;1250;42305;-70
2022/05/12 01:12:44;;;;;;;10.30;4.30;;;;;11.20;97810.00;;;;110983;1250;41254;-71
2022/05/12 01:15:17;;;;;;;11.80;4.30;;;;;11.20;97809.40;;;;111104;1250;41159;-71
2022/05/12 01:17:49;;;;;;;12.10;5.10;;;;;11.12;97807.60;;;;111113;1250;41325;-70
2022/05/12 01:20:25;;;;;;;12.60;5.10;;;;;11.10;97808.00;;;;110858;1250;41267;-71
2022/05/12 01:23:06;;;;;;;11.10;5.10;;;;;11.10;97810.40;;;;111016;1250;41510;-72
2022/05/12 01:25:37;;;;;;;13.50;5.70;;;;;11.10;97811.00;;;;111019;1251;41143;-71
2022/05/12 01:28:07;;;;;;;10.90;5.60;;;;;11.00;97811.60;;;;111037;1250;41157;-70
2022/05/12 01:30:37;;;;;;;13.20;6.30;;;;;10.90;97813.40;;;;111012;1251;41264;-70
2022/05/12 01:33:11;;;;;;;11.10;5.20;;;;;10.90;97811.20;;;;111007;1250;42370;-73
2022/05/12 01:35:41;;;;;;;9.30;4.50;;;;;10.80;97814.00;;;;110865;1251;41141;-73
2022/05/12 01:38:13;;;;;;;9.60;4.50;;;;;10.80;97815.80;;;;110895;1251;41293;-71
2022/05/12 01:40:46;;;;;;;11.70;4.60;;;;;10.76;97815.20;;;;110869;1250;41242;-70
2022/05/12 01:43:17;;;;;;;9.80;4.40;;;;;10.70;97809.00;;;;111011;1251;41213;-72
2022/05/12 01:45:49;;;;;;;12.30;5.50;;;;;10.62;97816.80;;;;111016;1250;41384;-70
2022/05/12 01:48:20;;;;;;;12.30;5.20;;;;;10.60;97813.80;;;;110964;1250;42380;-70
2022/05/12 01:50:52;;;;;;;12.40;5.30;;;;;10.50;97814.20;;;;111206;1250;41137;-70
2022/05/12 01:53:22;;;;;;;10.10;4.70;;;;;10.48;97809.60;;;;110978;1250;41174;-69
2022/05/12 01:55:54;;;;;;;10.30;4.50;;;;;10.46;97812.40;;;;111003;1250;41140;-70
2022/05/12 01:58:23;;;;;;;9.70;4.40;;;;;10.40;97816.00;;;;111118;1250;41194;-71
2022/05/12 02:00:55;;;;;;;10.40;4.40;;;;;10.40;97819.20;;;;111031;1250;41243;-69
2022/05/12 02:03:25;;;;;;;9.40;4.30;;;;;10.40;97818.60;;;;111017;1250;41258;-70
2022/05/12 02:05:56;;;;;;;9.10;4.10;;;;;10.40;97818.40;;;;111234;1248;41130;-71
2022/05/12 02:08:27;;;;;;;9.80;4.40;;;;;10.40;97813.60;;;;110832;1251;41152;-70
2022/05/12 02:10:57;;;;;;;8.90;4.40;;;;;10.40;97814.20;;;;111096;1250;41201;-70
2022/05/12 02:13:28;;;;;;;9.60;4.30;;;;;10.40;97818.20;;;;110892;1250;42539;-71
2022/05/12 02:15:59;;;;;;;9.90;4.40;;;;;10.40;97817.20;;;;110980;1251;41373;-70
2022/05/12 02:18:31;;;;;;;10.30;4.70;;;;;10.40;97818.00;;;;111164;1250;42635;-72
2022/05/12 02:21:03;;;;;;;11.30;5.30;;;;;10.30;97820.00;;;;111095;1248;40911;-71
2022/05/12 02:23:32;;;;;;;11.10;4.80;;;;;10.30;97816.40;;;;111088;1249;41128;-70
2022/05/12 02:26:03;;;;;;;9.70;4.50;;;;;10.24;97818.60;;;;110923;1251;42841;-71
2022/05/12 02:28:33;;;;;;;;;;;;;10.20;97820.00;;;;111131;1251;41729;-70
2022/05/12 02:31:06;;;;;;;11.90;4.30;;;;;10.20;97821.60;;;;111108;1250;41142;-70
2022/05/12 02:33:38;;;;;;;9.70;4.30;;;;;10.20;97823.80;;;;111279;1250;41163;-70
2022/05/12 02:36:10;;;;;;;9.80;4.10;;;;;10.20;97824.40;;;;111040;1250;41158;-69
2022/05/12 02:38:40;;;;;;;9.70;3.90;;;;;10.18;97821.80;;;;110894;1250;42513;-72
2022/05/12 02:41:10;;;;;;;12.10;4.10;;;;;10.12;97829.60;;;;111032;1250;41001;-72
2022/05/12 02:43:41;;;;;;;10.30;4.20;;;;;10.10;97828.00;;;;111119;1250;41155;-70
2022/05/12 02:46:13;;;;;;;10.70;4.70;;;;;10.10;97822.80;;;;111062;1250;41401;-70
2022/05/12 02:48:46;;;;;;;10.30;4.50;;;;;10.10;97826.80;;;;110933;1250;41775;-70
2022/05/12 02:51:17;;;;;;;8.30;4.20;;;;;10.10;97828.20;;;;110919;1250;41143;-70
2022/05/12 02:53:48;;;;;;;10.80;3.80;;;;;10.08;97829.60;;;;110943;1250;41153;-70
2022/05/12 02:56:18;;;;;;;;;;;;;10.00;97828.80;;;;111112;1250;41607;-70
2022/05/12 02:58:49;;;;;;;10.20;5.30;;;;;10.00;97833.40;;;;111172;1251;41163;-72
2022/05/12 03:01:24;;;;;;;13.00;5.30;;;;;10.00;97829.80;;;;110709;1251;41153;-72
2022/05/12 03:03:54;;;;;;;10.50;5.10;;;;;9.90;97830.80;;;;110899;1250;41178;-72
2022/05/12 03:06:24;;;;;;;12.50;5.20;;;;;9.90;97832.40;;;;111080;1250;41257;-69
2022/05/12 03:08:53;;;;;;;12.70;5.00;;;;;9.90;97830.80;;;;110873;1250;41904;-70
2022/05/12 03:11:23;;;;;;;10.50;4.80;;;;;9.90;97836.00;;;;110897;1252;41147;-70
2022/05/12 03:13:52;;;;;;;10.90;5.00;;;;;9.90;97835.00;;;;110824;1252;41604;-70
2022/05/12 03:16:25;;;;;;;9.90;4.90;;;;;9.90;97836.60;;;;110956;1250;41151;-69
2022/05/12 03:18:54;;;;;;;10.90;5.60;;;;;9.90;97843.20;;;;110901;1250;41161;-72
2022/05/12 03:21:24;;;;;;;10.70;5.50;;;;;9.90;97846.00;;;;110968;1250;41706;-71
2022/05/12 03:23:54;;;;;;;10.40;4.60;;;;;9.90;97849.20;;;;110861;1251;41258;-72
2022/05/12 03:26:27;;;;;;;9.00;4.30;;;;;9.90;97849.60;;;;110966;1250;41152;-72
2022/05/12 03:28:57;;;;;;;8.90;3.80;;;;;10.00;97851.60;;;;110900;1251;41164;-69
2022/05/12 03:31:28;;;;;;;10.90;4.90;;;;;10.00;97851.40;;;;110976;1250;41272;-72
2022/05/12 03:34:00;;;;;;;11.30;5.60;;;;;10.02;97848.80;;;;110952;1251;41658;-69
2022/05/12 03:36:30;;;;;;;13.10;5.90;;;;;10.04;97846.80;;;;111057;1250;41169;-70
2022/05/12 03:39:00;;;;;;;10.60;5.30;;;;;10.00;97853.00;;;;110890;1250;42491;-71
2022/05/12 03:41:31;;;;;;;11.30;4.30;;;;;10.00;97853.00;;;;111086;1251;41155;-71
2022/05/12 03:46:48;;;;;;;8.10;3.80;;;;;10.20;97849.60;;;;110983;1252;41338;-70
2022/05/12 03:49:20;;;;;;;8.70;4.00;;;;;10.20;97850.60;;;;110998;1250;41068;-69
2022/05/12 03:51:49;;;;;;;10.30;5.40;;;;;10.30;97849.80;;;;110901;1251;41274;-71
2022/05/12 03:54:19;;;;;;;11.90;5.10;;;;;10.48;97850.80;;;;110926;1251;41159;-70
2022/05/12 03:56:50;;;;;;;14.00;5.90;;;;;10.82;97849.40;;;;110887;1253;41863;-69
2022/05/12 03:59:23;;;;;;;11.50;5.50;;;;;11.62;97826.20;;;;110960;1253;42115;-70
2022/05/12 04:01:53;;;;;;;12.50;6.00;;;;;12.42;97828.60;;;;111043;1251;41271;-70
2022/05/12 04:04:22;;;;;;;13.30;6.70;;;;;13.14;97818.80;;;;110989;1251;41400;-70
2022/05/12 04:06:52;;;;;;;11.30;6.00;;;;;13.80;97818.80;;;;110937;1252;41558;-70
2022/05/12 04:09:22;;;;;;;10.80;5.40;;;;;14.46;97824.20;;;;110864;1251;41159;-70
2022/05/12 04:11:51;;;;;;;13.60;5.00;;;;;15.10;97821.60;;;;110676;1254;41184;-70
2022/05/12 04:14:20;;;;;;;11.90;4.70;;;;;15.72;97815.60;;;;110910;1253;42021;-70
2022/05/12 04:16:49;;;;;;;9.50;4.40;;;;;16.34;97816.80;;;;110925;1252;41149;-71
2022/05/12 04:19:21;;;;;;;9.40;4.20;;;;;16.90;97818.60;;;;110863;1253;41139;-70
2022/05/12 04:21:52;;;;;;;8.20;3.80;;;;;17.40;97815.80;;;;111068;1251;41128;-71
2022/05/12 04:24:22;;;;;;;8.30;3.30;;;;;17.90;97819.40;;;;110982;1253;41217;-71
2022/05/12 04:26:51;;;;;;;8.90;3.20;;;;;18.40;97817.40;;;;110832;1253;42058;-71
2022/05/12 04:29:20;;;;;;;8.30;3.50;;;;;18.90;97817.00;;;;110829;1251;41146;-72
2022/05/12 04:31:49;;;;;;;9.20;3.60;;;;;19.30;97819.40;;;;110813;1250;41277;-71
2022/05/12 04:37:07;;;;;;;8.20;3.30;;;;;20.08;97820.20;;;;110871;1253;41353;-71
2022/05/12 04:39:37;;;;;;;8.30;3.60;;;;;20.40;97817.00;;;;111043;1250;41433;-70
2022/05/12 04:42:06;;;;;;;8.20;3.40;;;;;20.86;97822.60;;;;110733;1252;41037;-69
2022/05/12 04:44:36;;;;;;;7.70;3.20;;;;;21.20;97820.20;;;;110767;1251;41174;-70
2022/05/12 04:47:05;;;;;;;8.30;3.80;;;;;21.60;97816.00;;;;110748;1252;41385;-71
2022/05/12 04:49:36;;;;;;;12.30;3.90;;;;;21.88;97818.60;;;;110951;1251;41394;-71
2022/05/12 04:52:05;;;;;;;12.50;3.70;;;;;22.10;97820.00;;;;110789;1253;41157;-70
2022/05/12 04:54:34;;;;;;;10.40;3.90;;;;;22.40;97819.60;;;;111020;1250;42366;-71
2022/05/12 04:57:04;;;;;;;10.50;4.10;;;;;22.80;97820.00;;;;110975;1251;41601;-69
2022/05/12 04:59:33;;;;;;;10.00;4.50;;;;;22.90;97812.20;;;;110650;1253;42049;-71
2022/05/12 05:02:03;;;;;;;8.60;3.70;;;;;22.94;97818.60;;;;110669;1254;43066;-71
2022/05/12 05:04:32;;;;;;;8.00;3.80;;;;;23.20;97817.80;;;;110762;1254;41252;-71
2022/05/12 05:07:04;;;;;;;10.60;3.80;;;;;23.50;97817.60;;;;110760;1251;41267;-72
2022/05/12 05:09:33;;;;;;;8.90;3.10;;;;;23.70;97820.20;;;;110792;1249;42406;-70
2022/05/12 05:12:02;;;;;;;12.30;3.30;;;;;24.12;97815.80;;;;110829;1250;41939;-70
2022/05/12 05:14:31;;;;;;;7.70;2.70;;;;;24.50;97819.20;;;;110954;1251;41254;-71
2022/05/12 05:17:01;;;;;;;13.10;3.30;;;;;24.90;97814.20;;;;110843;1251;41923;-70
2022/05/12 05:19:31;;;;;;;10.40;3.10;;;;;25.00;97818.60;;;;110836;1251;42456;-71
2022/05/12 05:22:02;;;;;;;8.00;3.40;;;;;25.00;97820.00;;;;110857;1251;41147;-73
2022/05/12 05:24:31;;;;;;;14.50;5.90;;;;;25.20;97821.60;;;;110991;1250;41251;-71
2022/05/12 05:27:06;;;;;;;9.40;3.90;;;;;25.40;97825.80;;;;110932;1251;42584;-72
2022/05/12 05:29:41;;;;;;;;;;;;;25.80;97830.80;;;;110826;1251;42416;-70
2022/05/12 05:32:12;;;;;;;10.20;2.70;;;;;26.20;97824.00;;;;110933;1251;41189;-73
2022/05/12 05:34:42;;;;;;;;;;;;;26.42;97824.00;;;;110881;1250;41167;-71
2022/05/12 05:37:12;;;;;;;7.90;2.70;;;;;26.40;97824.00;;;;111026;1250;42009;-71
2022/05/12 05:39:42;;;;;;;10.10;2.80;;;;;26.48;97827.40;;;;110794;1252;41208;-72
2022/05/12 05:42:15;;;;;;;7.80;2.60;;;;;26.44;97826.40;;;;110924;1252;41390;-73
2022/05/12 05:44:44;;;;;;;7.50;2.80;;;;;26.50;97831.40;;;;111017;1251;40823;-72
2022/05/12 05:47:15;;;;;;;7.30;2.70;;;;;26.62;97826.80;;;;110937;1252;41917;-72
2022/05/12 05:49:44;;;;;;;7.60;2.50;;;;;26.90;97827.00;;;;110800;1251;41179;-72
2022/05/12 05:55:01;;;;;;;6.70;2.60;;;;;27.44;97828.80;;;;111009;1252;41138;-72
2022/05/12 05:57:34;;;;;;;7.70;2.50;;;;;27.50;97833.00;;;;110792;1251;41275;-72
2022/05/12 06:00:05;;;;;;;8.60;2.50;;;;;27.70;97830.80;;;;110808;1251;41137;-71
2022/05/12 06:02:34;;;;;;;6.50;2.50;;;;;28.00;97828.00;;;;110896;1253;41143;-72
2022/05/12 06:05:05;;;;;;;6.30;2.50;;;;;28.20;97827.40;;;;110827;1250;41162;-71
2022/05/12 06:07:36;;;;;;;8.20;3.10;;;;;28.36;97828.20;;;;110990;1251;42398;-72
2022/05/12 06:10:06;;;;;;;6.20;2.70;;;;;27.78;97827.80;;;;111011;1251;41855;-72
2022/05/12 06:12:36;;;;;;;6.30;2.60;;;;;27.02;97828.80;;;;110844;1251;42382;-70
2022/05/12 06:15:06;;;;;;;21.90;3.00;;;;;27.12;97832.80;;;;110910;1252;41151;-71
2022/05/12 06:17:37;;;;;;;8.60;2.70;;;;;27.34;97833.80;;;;110920;1251;41897;-70
2022/05/12 06:20:06;;;;;;;8.50;2.30;;;;;27.20;97835.00;;;;110945;1252;41243;-72
2022/05/12 06:22:37;;;;;;;7.20;2.60;;;;;27.58;97835.80;;;;111005;1251;42267;-73
2022/05/12 06:25:09;;;;;;;7.40;2.80;;;;;27.80;97829.40;;;;110989;1250;41172;-72
2022/05/12 06:27:41;;;;;;;7.90;3.00;;;;;28.20;97830.80;;;;111040;1250;41172;-71
2022/05/12 06:30:14;;;;;;;9.60;3.20;;;;;28.12;97828.40;;;;110916;1251;41967;-72
2022/05/12 06:32:44;;;;;;;7.70;2.80;;;;;27.80;97824.60;;;;110877;1251;41699;-68
2022/05/12 06:35:16;;;;;;;;;;;;;27.30;97823.40;;;;110844;1251;41199;-72
2022/05/12 06:37:45;;;;;;;7.00;2.80;;;;;27.60;97825.80;;;;111033;1251;41716;-73
2022/05/12 06:40:14;;;;;;;6.30;2.70;;;;;27.20;97823.00;;;;110999;1251;41147;-72
2022/05/12 06:42:50;;;;;;;8.60;3.60;;;;;27.60;97825.20;;;;110970;1251;41287;-71
2022/05/12 06:45:21;;;;;;;7.50;2.70;;;;;27.54;97824.20;;;;110841;1251;41654;-71
2022/05/12 06:47:52;;;;;;;7.40;2.30;;;;;27.50;97823.20;;;;110888;1251;41254;-73
2022/05/12 06:50:28;;;;;;;8.20;3.00;;;;;28.30;97817.60;;;;110882;1251;41399;-72
2022/05/12 06:53:00;;;;;;;6.50;2.60;;;;;28.90;97814.40;;;;110879;1251;41263;-73
2022/05/12 06:55:31;;;;;;;4.80;2.20;;;;;28.94;97815.00;;;;110836;1250;41564;-71
2022/05/12 06:58:00;;;;;;;5.90;2.10;;;;;29.24;97818.60;;;;110813;1251;41820;-72
2022/05/12 07:00:29;;;;;;;8.30;2.60;;;;;30.00;97817.60;;;;110800;1251;41885;-71
2022/05/12 07:02:58;;;;;;;6.30;2.30;;;;;29.84;97820.20;;;;110798;1251;41153;-72
2022/05/12 07:05:30;;;;;;;8.50;2.90;;;;;30.20;97819.60;;;;111031;1250;41150;-71
2022/05/12 07:08:00;;;;;;;5.90;2.30;;;;;29.50;97818.00;;;;110835;1252;41519;-70
2022/05/12 07:10:29;;;;;;;5.20;2.10;;;;;29.92;97815.20;;;;110840;1251;41152;-71
2022/05/12 07:12:58;;;;;;;4.70;2.10;;;;;30.40;97813.00;;;;110826;1251;41584;-70
2022/05/12 07:15:28;;;;;;;7.20;2.70;;;;;30.80;97811.60;;;;110806;1251;42252;-70
2022/05/12 07:17:59;;;;;;;9.60;3.10;;;;;30.66;97813.80;;;;110849;1252;41373;-71
2022/05/12 07:28:53;;;;;;;5.60;2.50;;;;;28.28;97826.40;;;;110783;1251;41180;-71
2022/05/12 07:31:23;;;;;;;6.40;2.50;;;;;28.00;97820.60;;;;110767;1251;42504;-72
2022/05/12 07:33:52;;;;;;;5.70;2.40;;;;;27.80;97825.60;;;;110894;1251;41199;-71
2022/05/12 07:36:32;;;;;;;8.50;2.70;;;;;27.34;97824.20;;;;110932;1250;41154;-71
2022/05/12 07:39:02;;;;;;;7.60;2.50;;;;;27.20;97827.00;;;;111149;1251;41142;-71
2022/05/12 07:41:32;;;;;;;6.70;2.40;;;;;26.90;97825.20;;;;110936;1251;41406;-72
2022/05/12 07:44:01;;;;;;;8.20;2.50;;;;;26.50;97828.40;;;;110923;1251;41145;-72
2022/05/12 07:46:31;;;;;;;7.90;2.80;;;;;26.32;97831.00;;;;110910;1251;41795;-69
2022/05/12 07:48:59;;;;;;;9.70;3.30;;;;;26.50;97831.20;;;;110719;1254;41172;-72
2022/05/12 07:51:29;;;;;;;7.40;2.50;;;;;26.28;97829.40;;;;110977;1250;41156;-73
2022/05/12 07:53:58;;;;;;;6.90;2.60;;;;;26.30;97827.20;;;;110986;1251;41642;-72
2022/05/12 07:56:28;;;;;;;9.40;2.90;;;;;26.68;97825.80;;;;110966;1250;41151;-72
2022/05/12 07:58:59;;;;;;;5.70;2.10;;;;;27.14;97825.40;;;;110851;1251;41579;-71
2022/05/12 08:01:28;;;;;;;9.50;2.30;;;;;27.24;97822.60;;;;110776;1253;42373;-71
2022/05/12 08:03:58;;;;;;;7.10;2.60;;;;;27.90;97820.60;;;;110928;1251;41602;-71
2022/05/12 08:06:27;;;;;;;9.40;2.70;;;;;27.84;97828.40;;;;110747;1251;41683;-72
2022/05/12 08:08:57;;;;;;;7.50;2.50;;;;;28.36;97826.20;;;;110961;1252;41675;-71
2022/05/12 08:11:26;;;;;;;9.00;3.40;;;;;28.44;97825.20;;;;110959;1251;42359;-71
2022/05/12 08:13:56;;;;;;;8.30;2.70;;;;;28.40;97824.20;;;;110781;1252;41159;-72
2022/05/12 08:16:25;;;;;;;6.60;2.50;;;;;28.30;97817.60;;;;110765;1252;41154;-73
2022/05/12 08:18:54;;;;;;;8.40;2.90;;;;;28.60;97814.40;;;;110595;1253;41870;-72
2022/05/12 08:21:25;;;;;;;7.40;2.80;;;;;28.28;97812.20;;;;110842;1251;41136;-72
2022/05/12 08:23:54;;;;;;;11.30;2.90;;;;;28.50;97814.60;;;;110695;1251;41143;-71
2022/05/12 08:26:24;;;;;;;5.80;2.30;;;;;28.64;97807.20;;;;110761;1251;42114;-72
2022/05/12 08:28:54;;;;;;;10.20;2.70;;;;;29.20;97810.60;;;;111023;1251;41180;-72
2022/05/12 08:31:30;;;;;;;6.60;2.50;;;;;29.70;97807.20;;;;110986;1251;41187;-71
2022/05/12 08:33:59;;;;;;;7.80;2.20;;;;;29.84;97806.60;;;;110879;1251;41151;-72
2022/05/12 08:36:28;;;;;;;5.20;2.20;;;;;30.72;97809.20;;;;110737;1252;41625;-69
2022/05/12 08:39:00;;;;;;;7.30;2.60;;;;;31.46;97805.00;;;;111002;1251;41553;-72
2022/05/12 08:41:41;;;;;;;5.80;2.10;;;;;32.26;97804.00;;;;110829;1252;41172;-73
2022/05/12 08:44:13;;;;;;;7.10;2.00;;;;;32.50;97801.60;;;;110782;1251;41167;-71
2022/05/12 08:46:44;;;;;;;5.70;2.30;;;;;32.80;97799.40;;;;110776;1254;41755;-73
2022/05/12 08:49:23;;;;;;;5.70;2.30;;;;;33.02;97794.80;;;;110985;1251;41144;-74
2022/05/12 08:51:55;;;;;;;5.50;2.10;;;;;33.62;97799.20;;;;110873;1250;41809;-72
2022/05/12 08:54:26;;;;;;;9.20;2.30;;;;;34.24;97801.20;;;;110736;1252;41525;-71
2022/05/12 08:57:01;;;;;;;7.70;2.10;;;;;34.96;97798.60;;;;110949;1251;41135;-71
2022/05/12 08:59:31;;;;;;;4.70;2.00;;;;;34.90;97800.40;;;;110778;1252;41618;-71
2022/05/12 09:02:15;;;;;;;6.80;2.30;;;;;35.04;97795.20;;;;110854;1251;41608;-71
2022/05/12 09:05:07;;;;;;;9.00;3.30;;;;;34.70;97794.00;;;;111001;1251;41912;-69
2022/05/12 09:07:51;;;;;;;5.50;2.20;;;;;33.70;97796.60;;;;110661;1251;41243;-72
2022/05/12 09:11:01;;;;;;;5.30;2.10;;;;;32.88;97794.60;;;;110917;1251;41246;-71
2022/05/12 09:13:41;;;;;;;;;;;;;32.94;97797.60;;;;110628;1252;41696;-72
2022/05/12 09:16:22;;;;;;;8.10;2.20;;;;;32.24;97804.60;;;;110821;1250;41167;-72
2022/05/12 09:18:53;;;;;;;7.00;2.30;;;;;31.80;97800.80;;;;110624;1251;41160;-70
2022/05/12 09:21:26;;;;;;;8.90;2.60;;;;;31.10;97801.20;;;;110604;1251;41165;-70
2022/05/12 09:23:57;;;;;;;6.30;2.20;;;;;31.30;97801.80;;;;110703;1253;41185;-71
2022/05/12 09:26:40;;;;;;;7.10;2.50;;;;;31.50;97797.20;;;;110864;1251;41410;-70
2022/05/12 09:29:29;;;;;;;6.60;2.40;;;;;31.68;97800.40;;;;110706;1253;41161;-71
2022/05/12 09:32:24;;;;;;;6.00;2.40;;;;;30.90;97803.60;;;;110721;1253;41162;-69
2022/05/12 09:35:23;;;;;;;6.10;2.40;;;;;30.54;97803.60;;;;110732;1251;41156;-71
2022/05/12 09:37:53;;;;;;;7.60;2.40;;;;;30.70;97801.40;;;;110726;1252;41162;-70
2022/05/12 09:40:34;;;;;;;5.20;2.20;;;;;30.32;97803.60;;;;111020;1251;41859;-70
2022/05/12 09:43:31;;;;;;;4.80;2.20;;;;;30.34;97805.80;;;;110924;1250;41521;-71
2022/05/12 09:46:08;;;;;;;5.60;2.10;;;;;29.96;97800.60;;;;111033;1249;41146;-70
2022/05/12 09:48:38;;;;;;;5.70;2.40;;;;;30.56;97791.60;;;;110685;1254;41154;-70
2022/05/12 09:51:32;;;;;;;6.70;2.10;;;;;31.22;97793.00;;;;110953;1251;41189;-72
2022/05/12 09:54:29;;;;;;;7.80;2.00;;;;;31.68;97792.40;;;;110926;1251;41274;-70
2022/05/12 09:57:14;;;;;;;5.10;1.80;;;;;32.36;97787.60;;;;110619;1251;347945;-70
2022/05/12 09:59:55;;;;;;;6.90;2.10;;;;;32.90;97780.40;;;;111026;1251;41153;-73
2022/05/12 10:08:27;;;;;;;8.00;2.30;;;;;31.88;97776.80;;;;111020;1251;41287;-72
2022/05/12 10:11:02;;;;;;;7.60;2.20;;;;;31.20;97777.60;;;;110831;1251;41535;-70
2022/05/12 10:13:50;;;;;;;9.60;2.60;;;;;31.10;97775.00;;;;110811;1251;42300;-70
2022/05/12 10:16:25;;;;;;;8.00;2.40;;;;;31.50;97771.80;;;;110941;1250;42019;-70
2022/05/12 10:18:58;;;;;;;5.00;2.20;;;;;32.04;97771.00;;;;110915;1251;41217;-70
2022/05/12 10:21:36;;;;;;;6.40;2.40;;;;;32.30;97761.40;;;;111001;1250;41895;-72
2022/05/12 10:24:17;;;;;;;9.00;2.40;;;;;31.68;97770.40;;;;110877;1251;40732;-70
2022/05/12 10:26:57;;;;;;;7.80;2.50;;;;;31.30;97772.40;;;;110943;1251;41243;-70
2022/05/12 10:29:47;;;;;;;9.70;2.90;;;;;31.00;97764.00;;;;110899;1251;41956;-70
2022/05/12 10:32:37;;;;;;;9.00;3.00;;;;;30.70;97764.20;;;;110970;1251;41144;-70
2022/05/12 10:35:33;;;;;;;8.20;3.10;;;;;30.62;97756.60;;;;110747;1253;41173;-68
2022/05/12 10:38:27;;;;;;;8.50;2.70;;;;;30.20;97758.20;;;;110936;1249;42225;-70
2022/05/12 10:41:02;;;;;;;5.80;2.40;;;;;30.32;97764.40;;;;111005;1250;41265;-72
2022/05/12 10:43:45;;;;;;;4.00;1.90;;;;;30.20;97750.40;;;;110992;1251;41623;-70
2022/05/12 10:46:44;;;;;;;6.10;1.90;;;;;30.58;97745.40;;;;110886;1251;41797;-69
2022/05/12 10:49:53;;;;;;;5.10;1.80;;;;;31.22;97746.00;;;;110845;1251;41623;-71
2022/05/12 10:52:46;;;;;;;4.70;2.10;;;;;31.86;97735.40;;;;110923;1251;41618;-70
2022/05/12 10:55:28;;;;;;;4.40;1.80;;;;;32.50;97740.20;;;;111004;1251;41400;-71
2022/05/12 10:58:23;;;;;;;4.90;2.00;;;;;33.08;97736.60;;;;110776;1251;42138;-71
2022/05/12 11:01:01;;;;;;;6.30;2.10;;;;;33.66;97730.60;;;;110968;1250;41266;-70
2022/05/12 11:03:34;;;;;;;6.00;2.10;;;;;34.40;97722.00;;;;110952;1251;41370;-69
2022/05/12 11:06:05;;;;;;;4.20;1.90;;;;;34.50;97721.40;;;;110990;1250;41641;-70
2022/05/12 11:08:46;;;;;;;4.60;1.70;;;;;35.10;97716.00;;;;110985;1251;41482;-68
2022/05/12 11:11:49;;;;;;;3.10;1.70;;;;;36.04;97713.80;;;;110938;1251;41943;-71
2022/05/12 11:14:31;;;;;;;5.20;2.00;;;;;36.98;97702.80;;;;110268;1259;41599;-70
2022/05/12 11:17:01;;;;;;;7.80;1.90;;;;;37.62;97702.80;;;;110242;1259;41960;-71
2022/05/12 11:19:30;;;;;;;3.90;1.80;;;;;37.98;97701.60;;;;110296;1260;41170;-70
2022/05/12 11:22:10;;;;;;;3.60;1.70;;;;;38.56;97704.40;;;;110260;1260;41630;-71
2022/05/12 11:24:49;;;;;;;4.10;1.70;;;;;39.34;97699.00;;;;110247;1258;41165;-71
2022/05/12 11:27:33;;;;;;;4.00;1.60;;;;;39.96;97691.00;;;;110281;1257;41192;-72
2022/05/12 11:30:07;;;;;;;4.20;1.50;;;;;40.22;97689.40;;;;110227;1259;41174;-71
2022/05/12 11:32:50;;;;;;;4.90;1.80;;;;;40.04;97680.80;;;;110237;1259;41294;-71
2022/05/12 11:35:22;;;;;;;7.50;2.00;;;;;40.60;97680.20;;;;110255;1259;41451;-70
2022/05/12 11:37:55;;;;;;;9.10;2.20;;;;;39.82;97676.00;;;;110208;1260;42389;-71
2022/05/12 11:40:48;;;;;;;6.10;1.90;;;;;39.20;97675.20;;;;110289;1259;41152;-71
2022/05/12 11:46:23;;;;;;;4.30;1.80;;;;;39.70;97670.60;;;;110267;1258;41265;-71
2022/05/12 11:49:05;;;;;;;2.20;1.30;;;;;39.10;97669.20;;;;110232;1259;40902;-69
2022/05/12 11:51:46;;;;;;;5.30;2.00;;;;;39.68;97668.20;;;;110598;1252;42059;-71
2022/05/12 11:54:34;;;;;;;6.50;2.10;;;;;39.30;97663.00;;;;110901;1251;41847;-71
2022/05/12 11:57:43;;;;;;;5.20;1.90;;;;;38.20;97666.60;;;;110981;1250;42508;-69
2022/05/12 12:00:35;;;;;;;5.40;1.70;;;;;37.66;97661.80;;;;110288;1259;41134;-71
2022/05/12 12:03:19;;;;;;;5.00;1.70;;;;;36.70;97665.00;;;;110985;1251;41157;-70
2022/05/12 12:05:48;;;;;;;4.00;1.70;;;;;37.42;97658.20;;;;110764;1252;41170;-71
2022/05/12 12:08:32;;;;;;;6.10;1.60;;;;;37.86;97657.60;;;;110895;1250;41265;-71
2022/05/12 12:11:25;;;;;;;6.10;1.90;;;;;38.60;97658.40;;;;110905;1250;41279;-72
2022/05/12 12:13:57;;;;;;;12.40;1.50;;;;;38.88;97649.20;;;;110965;1250;41152;-71
2022/05/12 12:17:01;;;;;;;7.10;1.70;;;;;39.06;97647.40;;;;110871;1250;41897;-71
2022/05/12 12:19:47;;;;;;;6.20;1.60;;;;;39.40;97645.60;;;;111037;1248;41746;-72
2022/05/12 12:22:35;;;;;;;7.50;1.60;;;;;39.58;97643.60;;;;110898;1250;41151;-71
2022/05/12 12:25:08;;;;;;;6.10;1.90;;;;;39.92;97634.40;;;;111026;1250;41447;-69
2022/05/12 12:28:09;;;;;;;6.00;1.80;;;;;38.76;97641.40;;;;110859;1251;41268;-70
2022/05/12 12:30:58;;;;;;;7.80;1.70;;;;;37.38;97645.60;;;;110950;1250;41142;-70
2022/05/12 12:33:31;;;;;;;5.20;1.80;;;;;36.80;97646.00;;;;110822;1250;41152;-70
2022/05/12 12:36:04;;;;;;;6.40;1.80;;;;;35.68;97643.40;;;;110894;1248;41621;-71
2022/05/12 12:38:48;;;;;;;4.00;1.60;;;;;34.64;97649.20;;;;111042;1250;42040;-72
2022/05/12 12:41:29;;;;;;;3.90;1.50;;;;;34.10;97649.00;;;;110920;1251;41249;-70
2022/05/12 12:44:01;;;;;;;4.40;1.70;;;;;33.66;97648.60;;;;110981;1250;41943;-70
2022/05/12 12:46:53;;;;;;;4.50;1.50;;;;;33.20;97645.60;;;;110954;1250;41616;-71
2022/05/12 12:49:24;;;;;;;3.90;1.70;;;;;32.70;97645.40;;;;111061;1250;41588;-70
2022/05/12 12:52:05;;;;;;;3.80;1.60;;;;;32.40;97642.40;;;;110772;1251;41205;-71
2022/05/12 12:57:39;;;;;;;5.70;1.80;;;;;31.96;97629.60;;;;110901;1250;41255;-71
2022/05/12 13:00:29;;;;;;;6.90;1.90;;;;;31.80;97626.80;;;;110906;1251;41166;-71
2022/05/12 13:03:20;;;;;;;3.60;1.70;;;;;31.52;97622.80;;;;110723;1252;42459;-70
2022/05/12 13:05:52;;;;;;;5.70;1.80;;;;;31.50;97613.40;;;;110949;1250;41263;-72
2022/05/12 13:08:28;;;;;;;4.20;1.80;;;;;31.48;97618.60;;;;110674;1252;41215;-71
2022/05/12 13:10:59;;;;;;;5.40;1.70;;;;;30.88;97621.60;;;;110606;1252;41178;-72
2022/05/12 13:13:28;;;;;;;7.40;1.70;;;;;30.66;97622.60;;;;110948;1250;42415;-71